createdAt,value
2023-01-26T00:01:56.160Z,127.22
2023-01-26T00:07:00.003Z,160.90
2023-01-26T00:12:05.517Z,169.70
2023-01-26T00:17:09.275Z,171.75
2023-01-26T00:22:13.079Z,169.87
2023-01-26T00:27:18.509Z,167.05
2023-01-26T00:32:22.369Z,160.32
2023-01-26T00:37:26.164Z,167.15
2023-01-26T00:42:31.302Z,167.48
2023-01-26T00:47:35.143Z,144.23
2023-01-26T00:52:38.937Z,165.93
2023-01-26T00:57:44.091Z,167.95
2023-01-26T01:02:47.892Z,161.70
2023-01-26T01:07:51.684Z,156.63
2023-01-26T01:12:57.468Z,152.43
2023-01-26T01:18:01.215Z,155.02
2023-01-26T01:23:06.416Z,152.43
2023-01-26T01:28:11.609Z,140.77
2023-01-26T01:33:15.729Z,142.27
2023-01-26T01:38:19.515Z,148.93
2023-01-26T01:43:25.733Z,143.15
2023-01-26T01:48:32.599Z,140.75
2023-01-26T01:53:40.483Z,105.37
2023-01-26T02:03:53.214Z,131.95
2023-01-26T02:08:58.795Z,126.65
2023-01-26T02:14:08.325Z,125.22
2023-01-26T02:19:18.935Z,133.80
2023-01-26T02:24:26.702Z,127.68
2023-01-26T02:29:32.908Z,134.52
2023-01-26T02:34:36.744Z,134.68
2023-01-26T02:39:50.716Z,120.00
2023-01-26T02:44:55.965Z,121.30
2023-01-26T02:50:00.624Z,126.45
2023-01-26T02:55:22.067Z,118.90
2023-01-26T03:00:29.246Z,117.43
2023-01-26T03:05:33.237Z,124.27
2023-01-26T03:10:37.588Z,124.07
2023-01-26T03:15:47.943Z,121.22
2023-01-26T03:21:09.539Z,123.20
2023-01-26T03:26:30.960Z,119.00
2023-01-26T03:31:36.384Z,134.05
2023-01-26T03:36:40.343Z,128.50
2023-01-26T03:42:01.907Z,130.48
2023-01-26T03:47:24.850Z,117.50
2023-01-26T03:52:46.511Z,113.85
2023-01-26T03:57:51.339Z,121.62
2023-01-26T04:03:14.224Z,108.75
2023-01-26T04:08:24.725Z,106.57
2023-01-26T04:13:47.504Z,107.10
2023-01-26T04:19:10.989Z,97.53
2023-01-26T04:24:17.940Z,100.10
2023-01-26T04:29:23.962Z,96.65
2023-01-26T04:34:29.526Z,94.10
2023-01-26T04:39:34.012Z,84.40
2023-01-26T04:44:37.824Z,86.00
2023-01-26T04:49:43.296Z,74.53
2023-01-26T04:54:48.229Z,72.55
2023-01-26T04:59:54.605Z,75.37
2023-01-26T05:04:59.849Z,76.65
2023-01-26T05:10:04.283Z,77.10
2023-01-26T05:15:09.622Z,74.90
2023-01-26T05:20:17.032Z,64.87
2023-01-26T05:25:22.601Z,62.13
2023-01-26T05:30:26.495Z,72.12
2023-01-26T05:35:32.560Z,67.10
2023-01-26T05:40:36.359Z,72.85
2023-01-26T05:45:41.020Z,61.67
2023-01-26T05:50:46.825Z,65.53
2023-01-26T05:55:51.574Z,63.17
2023-01-26T06:00:57.120Z,73.22
2023-01-26T06:06:02.458Z,58.78
2023-01-26T06:11:07.506Z,75.97
2023-01-26T06:16:12.188Z,68.37
2023-01-26T06:21:17.637Z,76.32
2023-01-26T06:26:21.883Z,71.32
2023-01-26T06:31:29.482Z,65.32
2023-01-26T06:36:36.050Z,66.87
2023-01-26T06:41:40.642Z,68.68
2023-01-26T06:46:44.629Z,74.87
2023-01-26T06:51:56.764Z,72.50
2023-01-26T06:57:02.192Z,78.95
2023-01-26T07:02:12.543Z,78.62
2023-01-26T07:07:18.077Z,83.40
2023-01-26T07:12:21.887Z,73.28
2023-01-26T07:17:25.748Z,68.22
2023-01-26T07:22:30.867Z,78.62
2023-01-26T07:27:34.928Z,82.75
2023-01-26T07:32:38.787Z,92.65
2023-01-26T07:37:43.917Z,86.00
2023-01-26T07:42:47.750Z,84.80
2023-01-26T07:47:55.766Z,82.03
2023-01-26T07:53:02.703Z,68.97
2023-01-26T07:58:06.487Z,76.50
2023-01-26T08:03:10.302Z,78.78
2023-01-26T08:08:17.612Z,73.85
2023-01-26T08:13:34.407Z,74.93
2023-01-26T08:18:39.144Z,67.55
2023-01-26T08:23:44.484Z,73.43
2023-01-26T08:28:49.053Z,79.72
2023-01-26T08:33:54.419Z,85.87
2023-01-26T08:38:59.586Z,103.47
2023-01-26T08:44:03.414Z,97.30
2023-01-26T08:49:07.174Z,111.88
2023-01-26T08:54:12.341Z,102.22
2023-01-26T08:59:16.131Z,117.13
2023-01-26T09:04:19.921Z,108.85
2023-01-26T09:09:25.120Z,109.65
2023-01-26T09:14:29.444Z,109.75
2023-01-26T09:19:33.577Z,91.70
2023-01-26T09:24:38.671Z,97.07
2023-01-26T09:29:42.426Z,126.78
2023-01-26T09:34:46.404Z,117.93
2023-01-26T09:39:51.614Z,96.75
2023-01-26T09:45:03.562Z,107.50
2023-01-26T09:50:14.588Z,105.43
2023-01-26T09:55:22.944Z,101.65
2023-01-26T10:00:31.518Z,91.18
2023-01-26T10:05:45.925Z,121.28
2023-01-26T10:10:54.959Z,96.72
2023-01-26T10:16:02.031Z,104.03
2023-01-26T10:21:08.831Z,125.43
2023-01-26T10:26:18.864Z,97.75
2023-01-26T10:31:25.750Z,110.18
2023-01-26T10:36:31.894Z,107.78
2023-01-26T10:41:37.815Z,107.78
2023-01-26T10:46:43.388Z,96.20
2023-01-26T10:52:05.785Z,87.07
2023-01-26T10:57:18.567Z,79.65
2023-01-26T11:02:27.138Z,100.43
2023-01-26T11:07:34.953Z,90.30
2023-01-26T11:12:40.080Z,83.87
2023-01-26T11:17:50.608Z,72.75
2023-01-26T11:23:02.321Z,71.70
2023-01-26T11:28:27.136Z,82.90
2023-01-26T11:33:41.052Z,64.45
2023-01-26T11:39:01.632Z,62.70
2023-01-26T11:44:26.484Z,57.17
2023-01-26T11:49:55.531Z,50.55
2023-01-26T11:55:18.372Z,55.60
2023-01-26T12:00:30.835Z,57.17
2023-01-26T12:05:43.162Z,44.67
2023-01-26T12:10:59.187Z,37.78
2023-01-26T12:16:13.605Z,49.53
2023-01-26T12:21:19.378Z,37.67
2023-01-26T12:26:26.120Z,33.95
2023-01-26T12:31:36.829Z,33.28
2023-01-26T12:36:49.167Z,28.12
2023-01-26T12:42:07.334Z,36.35
2023-01-26T12:52:33.114Z,42.53
2023-01-26T12:57:43.575Z,32.92
2023-01-26T13:02:52.609Z,32.13
2023-01-26T13:07:56.608Z,42.75
2023-01-26T13:13:02.091Z,35.67
2023-01-26T13:18:08.821Z,31.10
2023-01-26T13:23:42.659Z,23.08
2023-01-26T13:28:47.513Z,31.77
2023-01-26T13:33:53.195Z,31.23
2023-01-26T13:39:01.258Z,23.27
2023-01-26T13:44:11.269Z,24.45
2023-01-26T13:49:27.312Z,25.27
2023-01-26T13:54:31.315Z,24.95
2023-01-26T13:59:48.872Z,34.38
2023-01-26T14:04:55.635Z,27.08
2023-01-26T14:10:02.026Z,30.05
2023-01-26T14:15:09.546Z,18.25
2023-01-26T14:20:27.328Z,23.60
2023-01-26T14:25:31.652Z,24.37
2023-01-26T14:30:36.870Z,23.30
2023-01-26T14:35:42.770Z,26.67
2023-01-26T14:40:47.169Z,18.98
2023-01-26T14:45:55.638Z,21.95
2023-01-26T14:51:02.138Z,16.98
2023-01-26T14:56:06.392Z,16.48
2023-01-26T15:01:10.270Z,16.00
2023-01-26T15:06:23.888Z,18.58
2023-01-26T15:11:47.874Z,12.07
2023-01-26T15:16:55.101Z,16.75
2023-01-26T15:22:00.695Z,10.77
2023-01-26T15:27:08.483Z,17.50
2023-01-26T15:32:30.430Z,15.07
2023-01-26T15:37:36.202Z,12.52
2023-01-26T15:42:40.151Z,15.73
2023-01-26T15:47:43.957Z,17.60
2023-01-26T15:52:49.111Z,22.62
2023-01-26T15:57:52.902Z,20.02
2023-01-26T16:02:56.778Z,17.40
2023-01-26T16:08:01.914Z,18.60
2023-01-26T16:13:09.803Z,14.20
2023-01-26T16:18:13.866Z,12.70
2023-01-26T16:23:21.712Z,13.50
2023-01-26T16:28:25.548Z,19.92
2023-01-26T16:33:29.411Z,11.85
2023-01-26T16:38:34.540Z,17.95
2023-01-26T16:43:41.890Z,15.02
2023-01-26T16:48:45.665Z,14.73
2023-01-26T16:53:51.170Z,12.95
2023-01-26T16:58:55.667Z,16.37
2023-01-26T17:03:59.838Z,15.07
2023-01-26T17:09:05.313Z,14.20
2023-01-26T17:14:11.183Z,13.23
2023-01-26T17:19:15.022Z,13.07
2023-01-26T17:24:20.200Z,10.20
2023-01-26T17:29:23.975Z,19.05
2023-01-26T17:34:27.768Z,12.52
2023-01-26T17:39:32.910Z,13.10
2023-01-26T17:44:36.710Z,15.63
2023-01-26T17:49:40.792Z,12.45
2023-01-26T17:54:45.992Z,15.07
2023-01-26T17:59:49.780Z,14.95
2023-01-26T18:04:53.566Z,13.88
2023-01-26T18:09:58.676Z,15.75
2023-01-26T18:15:02.486Z,8.70
2023-01-26T18:20:07.155Z,13.23
2023-01-26T18:25:12.634Z,21.77
2023-01-26T18:30:16.983Z,16.00
2023-01-26T18:35:20.764Z,16.87
2023-01-26T18:40:25.915Z,21.83
2023-01-26T18:45:29.656Z,23.23
2023-01-26T18:50:33.421Z,19.33
2023-01-26T18:55:38.818Z,12.80
2023-01-26T19:00:42.820Z,21.15
2023-01-26T19:05:46.869Z,15.73
2023-01-26T19:10:52.689Z,17.85
2023-01-26T19:15:56.787Z,13.55
2023-01-26T19:21:03.085Z,27.40
2023-01-26T19:26:13.183Z,15.82
2023-01-26T19:31:19.374Z,19.02
2023-01-26T19:36:24.592Z,10.82
2023-01-26T19:41:29.750Z,14.23
2023-01-26T19:46:33.972Z,13.38
2023-01-26T19:51:37.906Z,17.55
2023-01-26T19:56:43.160Z,23.00
2023-01-26T20:01:47.099Z,18.70
2023-01-26T20:06:53.225Z,19.48
2023-01-26T20:11:58.442Z,29.17
2023-01-26T20:17:02.469Z,21.48
2023-01-26T20:22:06.423Z,21.95
2023-01-26T20:27:11.908Z,25.05
2023-01-26T20:32:15.956Z,25.25
2023-01-26T20:37:21.505Z,20.05
2023-01-26T20:42:26.810Z,13.62
2023-01-26T20:47:33.948Z,20.10
2023-01-26T20:52:38.534Z,25.27
2023-01-26T20:57:43.694Z,24.12
2023-01-26T21:02:47.602Z,22.37
2023-01-26T21:07:53.423Z,20.30
2023-01-26T21:12:58.763Z,21.67
2023-01-26T21:18:02.557Z,19.27
2023-01-26T21:23:06.288Z,20.27
2023-01-26T21:28:11.434Z,20.12
2023-01-26T21:33:15.342Z,21.08
2023-01-26T21:38:19.130Z,29.85
2023-01-26T21:43:24.254Z,28.50
2023-01-26T21:48:35.704Z,24.55
2023-01-26T21:53:39.470Z,20.67
2023-01-26T21:59:02.432Z,25.92
2023-01-26T22:04:08.762Z,23.05
2023-01-26T22:09:14.466Z,20.95
2023-01-26T22:14:21.566Z,24.02
2023-01-26T22:19:26.005Z,24.03
2023-01-26T22:24:30.039Z,32.58
2023-01-26T22:29:35.458Z,20.88
2023-01-26T22:34:39.256Z,12.85
2023-01-26T22:39:43.223Z,22.35
2023-01-26T22:44:48.256Z,35.00
2023-01-26T22:49:52.068Z,27.15
2023-01-26T22:54:55.811Z,22.70
2023-01-26T23:00:00.935Z,32.25
2023-01-26T23:05:05.028Z,36.20
2023-01-26T23:10:09.930Z,40.05
2023-01-26T23:15:15.327Z,22.75
2023-01-26T23:20:19.774Z,39.67
2023-01-26T23:25:41.175Z,41.95
2023-01-26T23:30:46.286Z,21.48
2023-01-26T23:35:50.082Z,26.25
2023-01-26T23:40:54.269Z,32.67
2023-01-26T23:45:59.577Z,31.23
2023-01-26T23:51:05.504Z,24.23
2023-01-26T23:56:11.499Z,23.12
